首页
METAR-TAF:

METAR-TAF

机场 :

林丁平德林国际机场

拿骚, 巴哈马

纬度: 25-03N, 经度: 077-28W, 海拔: 3米

当前天气观测

该预报发布于18分钟前的21:00 UTC
风速11节,风向南转西南
温度 29°C
湿度 74%
气压 1018 hPa
能見度: 8000
散云层高于1500英尺, 积雨云.
散云层高于20000英尺
雷暴, 附近有阵雨

METAR: MYNN 182100Z 21011KT 8000 TS VCSH SCT015CB SCT200 29/24 A3006 RMK CB SE THRU NW VCSH S THRU SW

时间: 17:18 (21:18 UTC)

预报

该预报发布于5小时和18分钟前的16:00 UTC
预报有效从18日的 18点(UTC)到 19日的 18点(UTC)
风速2节,风向多变
能见度10公里或以上
散云层高于1800英尺, 积雨云.
散云层高于20000英尺
少量云层高于2000英尺
雷暴, 雨

TAF: MYNN 181600Z 1818/1918 05008KT 8000 TSRA SCT018CB SCT200 BCMG 1900/1902 VRB02KT 9999 FEW020

超过4000个机场的气象观测和天气预报(METAR&TAF报告)。

可查询的气象台以黄色和红色小点在地图上表示。

将鼠标移到小点上方,可查看气象台名称。

然后点击查看天气观测和预报。

如需切换地图:点击带黑十字的绿色按钮放大地图;点击带横线的绿色按钮缩小地图;或者点击绿色箭头查看邻近地区的地图。


METAR-TAF: